Time;durP1;ratioP1;P1;durP2;ratioP2;P2;SDS_P1;SDS_P2;PMS_P1;PMS_P2;Temp;Humidity;BMP_temperature;BMP_pressure;BME280_temperature;BME280_humidity;BME280_pressure;Samples;Min_cycle;Max_cycle;Signal;HPM_P1;HPM_P2
2021/08/14 00:00:18;;;;;;;12.60;4.43;;;;;;;23.72;57.15;100516.25;5103329;28;20347;-68
2021/08/14 00:02:43;;;;;;;7.30;4.10;;;;;;;23.83;56.58;100519.00;5103127;28;20355;-68
2021/08/14 00:05:09;;;;;;;8.35;4.25;;;;;;;23.61;57.46;100517.03;5103371;28;20036;-68
2021/08/14 00:07:34;;;;;;;8.77;4.25;;;;;;;23.88;56.46;100516.41;5103149;28;20048;-68
2021/08/14 00:10:00;;;;;;;8.23;4.20;;;;;;;23.65;57.39;100516.34;5103068;28;20314;-68
2021/08/14 00:12:25;;;;;;;8.13;4.07;;;;;;;23.66;57.46;100522.56;5102834;28;20268;-68
2021/08/14 00:14:51;;;;;;;9.63;4.28;;;;;;;23.49;57.92;100514.22;5102613;28;20599;-68
2021/08/14 00:17:16;;;;;;;8.55;4.03;;;;;;;23.53;58.29;100520.84;5102704;28;20044;-68
2021/08/14 00:19:41;;;;;;;9.50;4.28;;;;;;;23.59;57.80;100514.53;5102870;28;20039;-68
2021/08/14 00:22:07;;;;;;;7.35;4.40;;;;;;;23.61;57.72;100517.03;5102466;28;20314;-68
2021/08/14 00:24:33;;;;;;;6.30;4.10;;;;;;;23.52;57.88;100520.00;5103159;28;20027;-68
2021/08/14 00:26:58;;;;;;;9.07;4.43;;;;;;;23.35;58.37;100515.44;5102616;28;20028;-67
2021/08/14 00:29:24;;;;;;;7.07;4.10;;;;;;;23.24;58.80;100507.06;5102706;28;20067;-68
2021/08/14 00:31:49;;;;;;;10.05;4.72;;;;;;;23.16;59.02;100525.44;5102467;28;20103;-68
2021/08/14 00:34:15;;;;;;;7.88;4.15;;;;;;;23.24;59.03;100530.56;5099530;28;20046;-68
2021/08/14 00:36:40;;;;;;;7.13;4.22;;;;;;;23.27;58.72;100529.28;5088624;28;20325;-69
2021/08/14 00:39:06;;;;;;;8.73;4.50;;;;;;;23.20;58.73;100537.47;5100157;28;20030;-68
2021/08/14 00:41:32;;;;;;;9.27;4.60;;;;;;;23.23;58.60;100537.00;5092505;28;20263;-68
2021/08/14 00:44:01;;;;;;;12.05;4.68;;;;;;;23.11;58.80;100538.81;5094565;28;20050;-68
2021/08/14 00:46:28;;;;;;;5.53;3.85;;;;;;;23.08;58.23;100504.13;5073040;28;20220;-68
2021/08/14 00:48:55;;;;;;;6.22;4.28;;;;;;;23.25;58.28;100535.72;5089543;28;20039;-68
2021/08/14 00:51:21;;;;;;;10.15;4.55;;;;;;;23.16;58.27;100531.69;5083387;28;20626;-68
2021/08/14 00:53:46;;;;;;;7.18;3.90;;;;;;;23.24;58.08;100536.78;5095756;28;20024;-68
2021/08/14 00:56:12;;;;;;;6.15;4.10;;;;;;;23.42;57.45;100543.22;5078241;28;20026;-68
2021/08/14 00:58:38;;;;;;;9.88;4.13;;;;;;;23.40;57.15;100538.03;5102895;28;20032;-68
2021/08/14 01:01:04;;;;;;;11.88;4.13;;;;;;;23.47;56.91;100543.38;5082945;28;20283;-68
2021/08/14 01:03:31;;;;;;;8.68;4.65;;;;;;;23.63;56.45;100544.66;5099618;28;20259;-68
2021/08/14 01:05:58;;;;;;;7.60;4.63;;;;;;;23.82;56.05;100541.69;5094298;28;20028;-68
2021/08/14 01:08:23;;;;;;;8.52;4.00;;;;;;;23.84;56.22;100544.16;5095346;28;20039;-68
2021/08/14 01:10:49;;;;;;;8.75;4.13;;;;;;;23.92;55.88;100545.72;5089878;28;20024;-68
2021/08/14 01:13:14;;;;;;;7.70;4.00;;;;;;;24.04;55.54;100550.13;5077568;28;20163;-68
2021/08/14 01:15:49;;;;;;;10.23;4.65;;;;;;;23.99;55.10;100519.41;5073214;28;20032;-68
2021/08/14 01:18:16;;;;;;;7.95;4.22;;;;;;;24.10;55.46;100551.91;5094663;28;20263;-68
2021/08/14 01:20:42;;;;;;;9.32;4.63;;;;;;;24.19;55.09;100552.41;5096186;28;20047;-69
2021/08/14 01:23:09;;;;;;;7.00;4.20;;;;;;;24.38;54.62;100554.00;5096973;28;20099;-69
2021/08/14 01:25:35;;;;;;;6.82;4.18;;;;;;;24.39;54.25;100544.81;5095264;28;20036;-69
2021/08/14 01:28:00;;;;;;;10.10;3.95;;;;;;;24.41;54.31;100545.41;5094812;28;20041;-69
2021/08/14 01:30:26;;;;;;;8.27;4.07;;;;;;;24.34;53.52;100552.00;5088980;28;20103;-69
2021/08/14 01:32:51;;;;;;;7.57;4.40;;;;;;;24.24;54.60;100551.72;5085151;28;20329;-69
2021/08/14 01:35:17;;;;;;;7.20;4.07;;;;;;;24.04;55.64;100552.00;5089146;28;20375;-68
2021/08/14 01:37:42;;;;;;;11.07;4.28;;;;;;;24.21;55.29;100550.28;5096493;28;20028;-68
2021/08/14 01:40:08;;;;;;;6.13;4.32;;;;;;;24.20;55.27;100554.88;5082391;28;20029;-68
2021/08/14 01:42:34;;;;;;;9.15;4.20;;;;;;;24.25;55.14;100551.47;5086663;28;20324;-68
2021/08/14 01:44:59;;;;;;;9.30;4.28;;;;;;;24.29;54.99;100549.16;5097979;28;20114;-68
2021/08/14 01:47:25;;;;;;;8.48;4.60;;;;;;;24.27;54.96;100546.69;5094645;28;20048;-68
2021/08/14 01:49:50;;;;;;;8.18;4.20;;;;;;;24.29;55.01;100555.41;5089126;28;20210;-68
2021/08/14 01:52:17;;;;;;;8.57;4.45;;;;;;;24.43;54.55;100553.31;5099620;28;20076;-68
2021/08/14 01:54:43;;;;;;;11.35;5.18;;;;;;;24.29;55.00;100555.41;5094523;28;20039;-68
2021/08/14 01:57:09;;;;;;;7.90;4.50;;;;;;;24.11;55.67;100558.16;5089493;28;20238;-68
2021/08/14 01:59:36;;;;;;;19.63;5.70;;;;;;;24.10;55.52;100560.03;5091903;28;20059;-68
2021/08/14 02:02:02;;;;;;;8.70;4.32;;;;;;;24.16;54.98;100559.09;5086575;28;20130;-68
2021/08/14 02:04:28;;;;;;;8.35;4.70;;;;;;;24.12;55.00;100557.91;5094196;28;20032;-68
2021/08/14 02:06:54;;;;;;;7.32;4.85;;;;;;;24.06;55.17;100556.13;5091423;28;20214;-68
2021/08/14 02:09:19;;;;;;;10.63;4.50;;;;;;;24.10;54.56;100549.22;5093393;28;20035;-68
2021/08/14 02:11:45;;;;;;;7.18;4.07;;;;;;;23.97;54.32;100540.47;5101205;28;20032;-68
2021/08/14 02:14:11;;;;;;;9.90;4.35;;;;;;;23.89;54.63;100547.00;5095196;28;20079;-69
2021/08/14 02:16:37;;;;;;;7.80;4.50;;;;;;;23.80;54.70;100538.38;5086403;28;20039;-69
2021/08/14 02:19:02;;;;;;;11.32;4.50;;;;;;;23.83;55.20;100543.31;5096056;28;20040;-69
2021/08/14 02:21:28;;;;;;;8.35;4.47;;;;;;;23.79;56.42;100541.31;5084569;28;20028;-69
2021/08/14 02:23:55;;;;;;;11.32;4.50;;;;;;;23.82;55.53;100540.84;5095705;28;20040;-68
2021/08/14 02:26:20;;;;;;;11.02;4.15;;;;;;;23.74;55.19;100544.69;5098248;28;20028;-69
2021/08/14 02:28:46;;;;;;;8.13;4.65;;;;;;;23.79;55.54;100542.13;5098633;28;20377;-68
2021/08/14 02:31:12;;;;;;;8.50;4.18;;;;;;;23.84;54.77;100544.16;5091923;28;20095;-68
2021/08/14 02:33:37;;;;;;;9.63;4.40;;;;;;;23.73;55.17;100540.34;5097756;28;20198;-68
2021/08/14 02:36:04;;;;;;;8.68;4.38;;;;;;;23.70;55.05;100543.50;5099831;28;20046;-68
2021/08/14 02:38:31;;;;;;;7.75;4.25;;;;;;;23.78;55.67;100543.19;5097461;28;20043;-68
2021/08/14 02:40:56;;;;;;;8.48;5.68;;;;;;;23.78;55.67;100543.19;5092547;28;20339;-68
2021/08/14 02:43:22;;;;;;;12.55;4.43;;;;;;;23.82;54.82;100540.84;5083214;28;20040;-68
2021/08/14 02:45:47;;;;;;;10.82;4.40;;;;;;;23.70;56.07;100530.00;5091906;28;20035;-68
2021/08/14 02:48:13;;;;;;;9.73;4.97;;;;;;;23.87;55.29;100530.16;5089166;28;20064;-68
2021/08/14 02:50:42;;;;;;;8.38;5.05;;;;;;;23.85;54.98;100532.28;5090853;28;20326;-68
2021/08/14 02:53:07;;;;;;;10.27;4.50;;;;;;;23.80;55.79;100534.84;5093949;28;20052;-69
2021/08/14 02:55:33;;;;;;;9.57;4.90;;;;;;;23.73;55.49;100523.28;5094592;28;20027;-68
2021/08/14 02:57:58;;;;;;;7.70;4.15;;;;;;;23.82;53.96;100522.75;5096509;28;20030;-68
2021/08/14 03:00:23;;;;;;;10.75;4.47;;;;;;;23.76;54.63;100525.53;5095254;28;20046;-68
2021/08/14 03:02:49;;;;;;;14.27;5.10;;;;;;;23.75;54.55;100532.84;5085670;28;20029;-68
2021/08/14 03:05:14;;;;;;;12.15;5.07;;;;;;;23.70;55.23;100539.97;5092803;28;20036;-68
2021/08/14 03:07:40;;;;;;;11.85;5.07;;;;;;;23.68;54.58;100528.56;5087052;28;20097;-69
2021/08/14 03:10:06;;;;;;;7.25;4.88;;;;;;;23.54;55.57;100536.84;5099491;28;20228;-68
2021/08/14 03:12:32;;;;;;;9.85;4.32;;;;;;;23.30;56.86;100536.94;5092193;28;20219;-68
2021/08/14 03:14:57;;;;;;;10.38;5.50;;;;;;;23.24;57.17;100535.94;5103265;28;20054;-69
2021/08/14 03:17:22;;;;;;;9.27;5.18;;;;;;;23.16;56.90;100549.75;5096723;28;20036;-69
2021/08/14 03:19:48;;;;;;;7.90;5.13;;;;;;;23.14;56.79;100547.28;5095721;28;20246;-68
2021/08/14 03:22:13;;;;;;;11.50;6.25;;;;;;;23.01;58.06;100552.00;5091893;28;20043;-68
2021/08/14 03:24:39;;;;;;;14.70;5.72;;;;;;;23.17;58.08;100554.13;5097725;28;20045;-68
2021/08/14 03:27:06;;;;;;;10.98;5.88;;;;;;;23.25;57.87;100553.81;5090522;28;20426;-68
2021/08/14 03:29:32;;;;;;;13.25;6.00;;;;;;;23.17;58.18;100554.94;5092287;28;20390;-68
2021/08/14 03:31:57;;;;;;;17.73;6.35;;;;;;;22.89;59.24;100560.03;5089885;28;20063;-68
2021/08/14 03:34:23;;;;;;;14.52;6.30;;;;;;;22.71;59.82;100558.06;5082375;28;20342;-68
2021/08/14 03:36:48;;;;;;;12.27;5.95;;;;;;;22.87;59.34;100565.63;5082378;28;20330;-68
2021/08/14 03:39:14;;;;;;;14.00;5.80;;;;;;;23.12;58.61;100559.38;5086185;28;20036;-68
2021/08/14 03:41:39;;;;;;;22.27;6.38;;;;;;;23.11;58.60;100561.25;5095212;28;20254;-68
2021/08/14 03:44:05;;;;;;;15.70;5.68;;;;;;;23.25;58.35;100567.31;5094661;28;20020;-68
2021/08/14 03:46:31;;;;;;;29.02;6.63;;;;;;;23.37;57.85;100562.81;5097579;28;20089;-68
2021/08/14 03:48:56;;;;;;;16.00;6.28;;;;;;;23.63;56.40;100568.97;5089213;28;20055;-68
2021/08/14 03:51:22;;;;;;;16.42;6.35;;;;;;;23.60;56.32;100551.34;5092614;28;20032;-68
2021/08/14 03:53:47;;;;;;;14.43;6.22;;;;;;;23.71;55.73;100568.66;5091826;28;20047;-68
2021/08/14 03:56:13;;;;;;;12.75;5.32;;;;;;;23.57;56.55;100576.13;5104591;28;20076;-68
2021/08/14 03:58:38;;;;;;;10.88;5.72;;;;;;;23.49;56.76;100577.22;5123194;28;20344;-68
2021/08/14 04:01:04;;;;;;;16.88;6.28;;;;;;;23.38;57.15;100585.25;5114476;28;20031;-68
2021/08/14 04:03:30;;;;;;;11.60;5.95;;;;;;;23.24;57.55;100576.47;5094931;28;20042;-69
2021/08/14 04:05:56;;;;;;;20.13;7.05;;;;;;;23.45;57.00;100573.31;5092479;28;20044;-68
2021/08/14 04:08:22;;;;;;;14.63;5.85;;;;;;;23.59;56.54;100575.91;5099908;28;20043;-68
2021/08/14 04:10:48;;;;;;;15.65;5.80;;;;;;;23.59;56.45;100576.72;5096031;28;20052;-68
2021/08/14 04:13:13;;;;;;;16.35;6.40;;;;;;;23.54;56.39;100577.41;5089408;28;20051;-68
2021/08/14 04:15:38;;;;;;;14.55;6.00;;;;;;;23.50;56.74;100576.19;5091593;28;20040;-68
2021/08/14 04:18:04;;;;;;;23.75;6.18;;;;;;;23.35;56.88;100581.13;5089798;28;20070;-68
2021/08/14 04:20:30;;;;;;;16.35;6.30;;;;;;;23.36;57.25;100576.56;5096029;28;20079;-68
2021/08/14 04:22:55;;;;;;;20.17;6.00;;;;;;;23.55;56.80;100587.16;5094829;28;20032;-68
2021/08/14 04:25:21;;;;;;;13.75;5.90;;;;;;;23.64;56.38;100592.25;5096413;28;20031;-68
2021/08/14 04:27:46;;;;;;;17.13;5.63;;;;;;;23.80;56.02;100592.47;5092720;28;20042;-68
2021/08/14 04:30:12;;;;;;;16.83;5.70;;;;;;;23.74;56.25;100590.66;5088415;28;20401;-69
2021/08/14 04:32:38;;;;;;;15.65;5.78;;;;;;;23.71;56.67;100593.00;5092156;28;20051;-68
2021/08/14 04:35:09;;;;;;;18.60;6.15;;;;;;;23.53;56.99;100596.53;5094277;28;20067;-68
2021/08/14 04:37:35;;;;;;;17.95;6.75;;;;;;;23.58;57.08;100595.88;5084551;28;20309;-68
2021/08/14 04:40:01;;;;;;;11.63;5.57;;;;;;;23.71;56.73;100588.41;5096059;28;20020;-68
2021/08/14 04:42:27;;;;;;;12.70;6.75;;;;;;;23.91;56.29;100590.88;5088176;28;20028;-68
2021/08/14 04:44:52;;;;;;;12.27;6.10;;;;;;;24.07;55.86;100589.44;5087425;28;20209;-69
2021/08/14 04:47:17;;;;;;;9.15;5.03;;;;;;;24.32;55.06;100587.41;5088841;28;20044;-69
2021/08/14 04:49:43;;;;;;;8.45;5.35;;;;;;;24.43;54.49;100583.91;5087968;28;20034;-69
2021/08/14 04:52:08;;;;;;;9.52;4.78;;;;;;;24.50;54.75;100590.03;5054906;28;20033;-68
2021/08/14 04:54:34;;;;;;;10.10;5.32;;;;;;;24.70;54.26;100589.72;5089117;28;20036;-68
2021/08/14 04:56:59;;;;;;;13.38;5.60;;;;;;;24.97;53.68;100592.84;5092513;28;20032;-68
2021/08/14 04:59:25;;;;;;;14.93;5.78;;;;;;;25.26;52.89;100584.81;5089514;28;20228;-68
2021/08/14 05:01:50;;;;;;;9.02;4.88;;;;;;;25.39;52.42;100581.84;5088514;28;20039;-68
2021/08/14 05:04:16;;;;;;;10.20;4.78;;;;;;;25.60;51.50;100575.78;5087502;28;20067;-68
2021/08/14 05:06:41;;;;;;;17.23;5.57;;;;;;;25.79;50.54;100587.28;5091276;28;20097;-68
2021/08/14 05:09:07;;;;;;;10.15;5.07;;;;;;;25.68;50.28;100588.16;5090595;28;20252;-68
2021/08/14 05:11:33;;;;;;;22.48;6.65;;;;;;;25.55;51.06;100585.69;5091293;28;20333;-68
2021/08/14 05:13:58;;;;;;;16.05;5.90;;;;;;;25.88;50.53;100580.41;5074112;28;20116;-68
2021/08/14 05:16:25;;;;;;;11.52;5.40;;;;;;;26.32;49.10;100588.84;5087294;28;20016;-68
2021/08/14 05:18:51;;;;;;;11.82;5.18;;;;;;;26.36;49.05;100581.88;5087116;28;20035;-68
2021/08/14 05:21:17;;;;;;;13.10;7.35;;;;;;;26.64;47.96;100594.56;5094382;28;20337;-68
2021/08/14 05:23:42;;;;;;;15.30;6.05;;;;;;;26.74;48.04;100586.56;5094243;28;20085;-68
2021/08/14 05:26:08;;;;;;;14.48;5.80;;;;;;;26.93;47.47;100581.69;5076185;28;20032;-68
2021/08/14 05:28:33;;;;;;;14.80;5.88;;;;;;;27.50;46.34;100581.44;5089750;28;20028;-69
2021/08/14 05:30:59;;;;;;;19.38;6.45;;;;;;;27.63;45.44;100579.19;5091759;28;20024;-69
2021/08/14 05:33:24;;;;;;;19.52;6.07;;;;;;;27.85;45.22;100583.78;5087518;28;20109;-69
2021/08/14 05:35:50;;;;;;;16.80;6.68;;;;;;;28.08;44.16;100579.94;5091138;28;20040;-69
2021/08/14 05:38:15;;;;;;;21.17;7.07;;;;;;;28.11;43.99;100579.44;5094670;28;20030;-69
2021/08/14 05:40:41;;;;;;;24.25;7.32;;;;;;;28.14;44.10;100574.31;5093406;28;20024;-68
2021/08/14 05:43:07;;;;;;;18.10;7.45;;;;;;;28.46;42.94;100574.34;5082400;28;20028;-69
2021/08/14 05:45:32;;;;;;;13.40;6.70;;;;;;;28.66;43.00;100581.03;5094855;28;20032;-68
2021/08/14 05:48:01;;;;;;;13.98;7.00;;;;;;;28.46;42.88;100565.38;5100547;28;20304;-68
2021/08/14 05:50:27;;;;;;;17.48;7.43;;;;;;;28.62;42.77;100567.13;5274936;22;20059;-73
2021/08/14 05:52:52;;;;;;;14.63;6.57;;;;;;;29.08;41.53;100573.72;5090149;28;20070;-71
2021/08/14 05:55:17;;;;;;;13.73;5.95;;;;;;;29.27;41.19;100567.84;5099911;28;20053;-72
2021/08/14 05:57:43;;;;;;;18.92;6.60;;;;;;;29.44;40.68;100571.22;5087451;28;20062;-71
2021/08/14 06:00:09;;;;;;;14.60;7.43;;;;;;;29.36;40.69;100571.72;5087268;28;20081;-73
2021/08/14 06:02:34;;;;;;;15.32;6.72;;;;;;;29.43;40.50;100558.69;5089589;28;20016;-73
2021/08/14 06:05:00;;;;;;;11.40;7.25;;;;;;;29.01;41.51;100564.13;5094584;28;20043;-73
2021/08/14 06:07:25;;;;;;;12.48;7.13;;;;;;;28.99;41.56;100556.22;5076922;28;20016;-73
2021/08/14 06:09:51;;;;;;;9.63;6.53;;;;;;;29.44;40.68;100558.41;5089429;28;20120;-74
2021/08/14 06:12:16;;;;;;;10.77;6.70;;;;;;;29.57;40.44;100554.34;5071571;28;20067;-73
2021/08/14 06:14:42;;;;;;;17.65;7.18;;;;;;;29.92;39.61;100550.06;5092125;28;20059;-73
2021/08/14 06:17:07;;;;;;;18.02;7.32;;;;;;;29.98;39.00;100549.81;5088047;28;20028;-74
2021/08/14 06:19:33;;;;;;;12.70;6.47;;;;;;;30.12;38.93;100542.75;5094713;28;20042;-73
2021/08/14 06:21:58;;;;;;;11.90;6.70;;;;;;;30.32;38.35;100549.34;5100722;28;20042;-73
2021/08/14 06:24:24;;;;;;;8.68;5.90;;;;;;;30.65;37.39;100545.25;5099961;28;20032;-73
2021/08/14 06:26:49;;;;;;;12.27;5.70;;;;;;;30.73;37.59;100533.78;5087962;28;20039;-73
2021/08/14 06:29:15;;;;;;;8.88;6.05;;;;;;;30.87;36.93;100531.28;5091035;28;20029;-73
2021/08/14 06:31:40;;;;;;;13.55;6.70;;;;;;;30.92;37.44;100534.00;5085177;28;20036;-73
2021/08/14 06:34:06;;;;;;;10.98;5.50;;;;;;;30.93;36.80;100530.97;5098530;28;20030;-73
2021/08/14 06:36:31;;;;;;;10.10;5.32;;;;;;;31.21;36.41;100531.47;5094165;28;20050;-73
2021/08/14 06:38:57;;;;;;;12.95;5.90;;;;;;;31.26;36.61;100529.56;5090072;28;20336;-73
2021/08/14 06:41:23;;;;;;;14.70;5.95;;;;;;;31.16;36.37;100526.03;5094329;28;20040;-73
2021/08/14 06:43:48;;;;;;;11.77;5.30;;;;;;;30.85;37.18;100530.72;5089862;28;20042;-73
2021/08/14 06:46:14;;;;;;;17.63;5.68;;;;;;;31.33;36.62;100529.25;5093392;28;20055;-73
2021/08/14 06:48:39;;;;;;;11.25;5.57;;;;;;;31.35;36.40;100527.88;5091049;28;20055;-73
2021/08/14 06:51:04;;;;;;;13.25;5.78;;;;;;;31.79;35.46;100529.03;5091789;28;20028;-73
2021/08/14 06:53:31;;;;;;;12.07;5.95;;;;;;;31.93;35.37;100524.56;5098863;28;20020;-73
2021/08/14 06:55:56;;;;;;;7.85;5.20;;;;;;;31.55;35.76;100528.88;5093817;28;20050;-73
2021/08/14 06:58:22;;;;;;;14.13;5.28;;;;;;;31.97;35.04;100522.88;5089881;28;20325;-73
2021/08/14 07:00:47;;;;;;;12.32;7.78;;;;;;;31.94;34.68;100518.81;5094387;28;20329;-73
2021/08/14 07:03:12;;;;;;;8.18;5.60;;;;;;;32.58;34.24;100525.16;5101524;28;20030;-73
2021/08/14 07:05:39;;;;;;;12.23;5.72;;;;;;;32.32;34.34;100516.38;5092548;28;20043;-72
2021/08/14 07:08:05;;;;;;;9.98;5.00;;;;;;;33.00;33.29;100518.97;5091414;28;20024;-72
2021/08/14 07:10:31;;;;;;;11.00;5.05;;;;;;;32.88;33.10;100516.66;5097060;28;20240;-73
2021/08/14 07:12:56;;;;;;;11.73;6.47;;;;;;;32.59;33.62;100521.31;5092327;28;20028;-73
2021/08/14 07:15:22;;;;;;;11.50;6.00;;;;;;;32.51;33.85;100520.03;5094586;28;20038;-73
2021/08/14 07:17:47;;;;;;;7.63;5.65;;;;;;;32.51;34.05;100516.47;5086715;28;20024;-73
2021/08/14 07:20:13;;;;;;;9.10;5.78;;;;;;;32.22;34.61;100513.66;5102540;28;20054;-72
2021/08/14 07:22:38;;;;;;;11.02;6.10;;;;;;;32.19;34.08;100511.47;5078787;28;20044;-72
2021/08/14 07:25:04;;;;;;;10.00;5.97;;;;;;;32.32;33.83;100514.44;5096578;28;20032;-73
2021/08/14 07:27:30;;;;;;;16.17;5.95;;;;;;;33.00;32.91;100521.72;5101579;28;20065;-72
2021/08/14 07:29:55;;;;;;;8.63;5.43;;;;;;;33.37;31.94;100515.56;5093311;28;20035;-73
2021/08/14 07:32:21;;;;;;;15.27;6.22;;;;;;;33.49;32.36;100515.13;5089866;28;20218;-73
2021/08/14 07:34:46;;;;;;;12.82;5.18;;;;;;;33.72;31.87;100508.75;5085215;28;20044;-72
2021/08/14 07:37:11;;;;;;;12.10;5.32;;;;;;;33.75;31.84;100507.34;5077565;28;20116;-73
2021/08/14 07:39:37;;;;;;;12.18;5.78;;;;;;;33.39;31.98;100507.84;5092439;28;20028;-73
2021/08/14 07:42:03;;;;;;;12.07;5.90;;;;;;;33.65;31.39;100505.56;5092999;28;20032;-73
2021/08/14 07:44:28;;;;;;;6.90;4.78;;;;;;;33.87;31.60;100510.47;5092170;28;20333;-73
2021/08/14 07:46:53;;;;;;;10.73;5.63;;;;;;;34.17;31.57;100509.97;5100515;28;20028;-72
2021/08/14 07:49:19;;;;;;;13.32;5.80;;;;;;;34.32;30.88;100508.94;5101855;28;20245;-72
2021/08/14 07:51:44;;;;;;;10.32;5.35;;;;;;;34.55;30.51;100501.69;5093358;28;20320;-71
2021/08/14 07:54:10;;;;;;;13.70;5.72;;;;;;;34.54;30.08;100505.56;5092673;28;20035;-73
2021/08/14 07:56:35;;;;;;;13.45;5.55;;;;;;;34.16;31.12;100493.78;5083628;28;20238;-72
2021/08/14 07:59:00;;;;;;;10.63;5.88;;;;;;;34.40;30.85;100490.97;5082302;28;20415;-73
2021/08/14 08:01:26;;;;;;;7.95;5.43;;;;;;;34.41;30.65;100498.09;5093448;28;20030;-71
2021/08/14 08:03:51;;;;;;;11.77;5.75;;;;;;;34.63;29.34;100484.47;5096943;28;20044;-73
2021/08/14 08:06:17;;;;;;;8.70;4.85;;;;;;;35.05;29.59;100497.16;5091566;28;20024;-72
2021/08/14 08:08:42;;;;;;;7.07;5.05;;;;;;;35.43;28.91;100484.00;5096708;28;20032;-70
2021/08/14 08:11:07;;;;;;;8.45;5.40;;;;;;;35.18;29.24;100492.75;5101346;28;20511;-71
2021/08/14 08:13:33;;;;;;;7.05;5.25;;;;;;;35.36;28.80;100480.81;5096629;28;20035;-73
2021/08/14 08:15:58;;;;;;;10.57;5.40;;;;;;;34.92;29.69;100480.63;5091241;28;20571;-73
2021/08/14 08:18:24;;;;;;;9.80;5.55;;;;;;;34.76;29.56;100482.84;5094581;28;20050;-73
2021/08/14 08:20:49;;;;;;;11.27;5.57;;;;;;;35.00;29.29;100480.75;5093706;28;20035;-73
2021/08/14 08:23:16;;;;;;;10.13;5.55;;;;;;;35.15;29.54;100476.84;5088870;28;20342;-72
2021/08/14 08:25:43;;;;;;;9.38;5.60;;;;;;;35.11;29.19;100462.88;5099742;28;20024;-71
2021/08/14 08:28:09;;;;;;;7.47;4.97;;;;;;;35.13;29.26;100473.59;5101931;28;20042;-71
2021/08/14 08:30:34;;;;;;;10.63;5.53;;;;;;;34.96;29.52;100470.66;5098295;28;20032;-71
2021/08/14 08:32:59;;;;;;;13.05;5.07;;;;;;;35.29;28.27;100477.63;5092261;28;20236;-72
2021/08/14 08:35:25;;;;;;;8.30;5.22;;;;;;;35.39;28.21;100465.66;5096150;28;20024;-71
2021/08/14 08:37:51;;;;;;;6.57;4.78;;;;;;;35.45;27.99;100467.97;5087668;28;20376;-72
2021/08/14 08:40:17;;;;;;;7.45;4.72;;;;;;;35.77;28.27;100457.84;5087088;28;20032;-71
2021/08/14 08:42:45;;;;;;;11.40;5.35;;;;;;;35.82;28.38;100461.34;5088024;28;20096;-72
2021/08/14 08:45:11;;;;;;;9.70;5.32;;;;;;;35.72;27.70;100458.78;5094254;28;20341;-71
2021/08/14 08:47:44;;;;;;;9.50;5.05;;;;;;;35.26;28.61;100456.22;5091971;28;20063;-72
2021/08/14 08:50:11;;;;;;;9.10;4.32;;;;;;;35.23;28.40;100454.09;5065995;28;20111;-72
2021/08/14 08:52:36;;;;;;;11.45;5.50;;;;;;;35.20;28.10;100454.72;5085883;28;20024;-71
2021/08/14 08:55:03;;;;;;;10.82;5.07;;;;;;;35.22;28.05;100450.53;5096563;28;20050;-71
2021/08/14 08:57:28;;;;;;;8.27;4.97;;;;;;;35.38;28.57;100441.97;5090244;28;20291;-70
2021/08/14 08:59:54;;;;;;;15.93;5.47;;;;;;;35.32;28.91;100437.69;5087143;28;20063;-70
2021/08/14 09:02:35;;;;;;;14.52;5.60;;;;;;;35.33;28.48;100437.38;5067200;28;20048;-71
2021/08/14 09:05:18;;;;;;;10.55;5.25;;;;;;;35.64;27.55;100433.94;5098010;28;20110;-71
2021/08/14 09:07:46;;;;;;;9.13;4.82;;;;;;;35.38;27.76;100436.47;5073333;28;20043;-72
2021/08/14 09:10:22;;;;;;;7.18;4.28;;;;;;;35.36;27.45;100435.94;5091779;28;20215;-71
2021/08/14 09:12:49;;;;;;;7.53;4.50;;;;;;;35.16;25.75;100431.69;5088484;28;20241;-73
2021/08/14 09:15:27;;;;;;;10.15;5.78;;;;;;;34.84;26.39;100416.94;5094182;28;20046;-73
2021/08/14 09:17:59;;;;;;;10.20;5.28;;;;;;;35.00;26.69;100420.19;5091223;28;20040;-73
2021/08/14 09:20:25;;;;;;;6.80;4.60;;;;;;;35.18;25.92;100408.22;5086524;28;20028;-72
2021/08/14 09:23:16;;;;;;;7.28;4.57;;;;;;;35.40;26.41;100418.53;5082526;28;20207;-73
2021/08/14 09:25:47;;;;;;;6.75;4.50;;;;;;;35.62;27.15;100408.66;5093039;28;20343;-72
2021/08/14 09:28:16;;;;;;;8.98;5.38;;;;;;;35.38;26.83;100412.50;5074942;28;20253;-72
2021/08/14 09:30:59;;;;;;;7.55;4.63;;;;;;;35.30;27.61;100406.88;5090337;28;20085;-72
2021/08/14 09:33:30;;;;;;;10.55;4.70;;;;;;;34.83;27.56;100409.81;5090413;28;20247;-72
2021/08/14 09:35:56;;;;;;;8.88;4.95;;;;;;;35.06;26.90;100405.19;5096109;28;20056;-73
2021/08/14 09:38:22;;;;;;;8.52;4.70;;;;;;;34.80;27.46;100399.41;5094309;28;20375;-72
2021/08/14 09:40:48;;;;;;;7.70;4.80;;;;;;;34.67;27.91;100400.22;5091980;28;20034;-72
2021/08/14 09:43:15;;;;;;;13.43;5.65;;;;;;;34.43;28.62;100400.44;5099660;28;20228;-72
2021/08/14 09:45:54;;;;;;;6.68;4.90;;;;;;;34.20;27.91;100393.94;5086930;28;20032;-73
2021/08/14 09:48:24;;;;;;;7.85;5.07;;;;;;;34.13;28.23;100403.69;5086119;28;20033;-73
2021/08/14 09:50:53;;;;;;;10.30;5.40;;;;;;;33.62;29.53;100388.06;5097773;28;20062;-73
2021/08/14 09:53:21;;;;;;;7.25;5.20;;;;;;;33.46;29.41;100389.44;5093061;28;20043;-73
2021/08/14 09:55:54;;;;;;;8.43;5.40;;;;;;;33.80;28.55;100378.16;5082134;28;20032;-73
2021/08/14 09:58:20;;;;;;;9.82;5.07;;;;;;;33.58;28.86;100381.53;5095510;28;20054;-73
2021/08/14 10:00:48;;;;;;;8.85;4.88;;;;;;;33.84;28.84;100377.28;5092418;28;20248;-72
2021/08/14 10:03:15;;;;;;;10.32;5.07;;;;;;;33.83;27.62;100372.09;5095848;28;20068;-72
2021/08/14 10:05:42;;;;;;;7.53;5.03;;;;;;;33.68;27.52;100362.16;5089823;28;20231;-72
2021/08/14 10:08:08;;;;;;;9.18;4.68;;;;;;;33.61;28.57;100365.28;5093894;28;20063;-72
2021/08/14 10:10:33;;;;;;;8.20;5.00;;;;;;;33.70;28.43;100364.59;5095588;28;20040;-72
2021/08/14 10:13:00;;;;;;;8.40;5.50;;;;;;;33.75;28.42;100365.31;5072519;28;20422;-72
2021/08/14 10:15:27;;;;;;;7.90;4.85;;;;;;;33.75;28.24;100350.78;5099974;28;20309;-72
2021/08/14 10:17:53;;;;;;;9.85;5.35;;;;;;;33.62;28.67;100352.38;5096077;28;20036;-72
2021/08/14 10:20:18;;;;;;;6.47;5.13;;;;;;;33.66;28.68;100349.84;5099551;28;20024;-73
2021/08/14 10:22:45;;;;;;;10.07;5.32;;;;;;;33.69;28.36;100347.31;5101380;28;20057;-72
2021/08/14 10:25:19;;;;;;;7.40;4.97;;;;;;;33.50;28.64;100352.84;5095004;28;20024;-72
2021/08/14 10:27:59;;;;;;;9.77;5.43;;;;;;;33.40;28.73;100343.94;5093818;28;20035;-73
2021/08/14 10:30:37;;;;;;;8.55;5.20;;;;;;;33.41;27.88;100323.63;5095728;28;20143;-73
2021/08/14 10:33:03;;;;;;;6.68;4.70;;;;;;;33.09;29.43;100329.84;5101714;28;20138;-72
2021/08/14 10:35:28;;;;;;;7.22;5.30;;;;;;;33.23;29.58;100323.28;5075229;28;20016;-72
2021/08/14 10:37:54;;;;;;;7.88;4.70;;;;;;;33.49;28.83;100325.69;5101115;28;20048;-72
2021/08/14 10:40:20;;;;;;;7.38;5.22;;;;;;;33.37;28.64;100317.91;5090960;28;20028;-72
2021/08/14 10:42:52;;;;;;;7.57;5.55;;;;;;;33.42;28.55;100312.34;5072718;28;20072;-72
2021/08/14 10:45:33;;;;;;;7.85;5.32;;;;;;;33.30;29.33;100315.56;5076937;28;20039;-72
2021/08/14 10:48:05;;;;;;;10.98;5.10;;;;;;;32.79;29.44;100315.44;5097082;28;20071;-72
2021/08/14 10:50:34;;;;;;;12.98;6.22;;;;;;;32.86;29.10;100317.81;5094821;28;20024;-72
2021/08/14 10:53:11;;;;;;;8.35;4.90;;;;;;;33.06;29.13;100301.06;5096109;28;20078;-72
2021/08/14 10:55:42;;;;;;;14.00;5.38;;;;;;;33.08;28.84;100278.81;5105563;28;20348;-72
2021/08/14 10:58:17;;;;;;;7.35;4.95;;;;;;;33.35;27.92;100298.19;5094746;28;20044;-72
2021/08/14 11:00:42;;;;;;;8.55;5.03;;;;;;;33.52;28.55;100300.38;5094279;28;20051;-73
2021/08/14 11:03:10;;;;;;;6.85;5.25;;;;;;;33.46;28.10;100288.66;5091419;28;20249;-72
2021/08/14 11:05:38;;;;;;;7.63;5.03;;;;;;;33.43;28.72;100282.97;5086272;28;20133;-72
2021/08/14 11:08:28;;;;;;;8.65;5.07;;;;;;;33.55;28.18;100286.84;5090409;28;20032;-72
2021/08/14 11:10:55;;;;;;;9.98;4.90;;;;;;;33.81;28.02;100283.66;5095054;28;20039;-73
2021/08/14 11:13:29;;;;;;;10.10;5.80;;;;;;;33.91;27.54;100280.75;5088018;28;20016;-72
2021/08/14 11:15:55;;;;;;;7.70;4.78;;;;;;;33.84;27.42;100280.31;5088581;28;20048;-72
2021/08/14 11:18:49;;;;;;;9.50;5.43;;;;;;;33.61;27.71;100274.66;5094196;28;20256;-72